createdAt,value
2023-12-26T00:00:38.223Z,10.40
2023-12-26T00:08:46.453Z,10.40
2023-12-26T00:30:26.384Z,10.40
2023-12-26T00:35:41.848Z,10.40
2023-12-26T00:38:18.373Z,10.40
2023-12-26T00:41:22.687Z,10.40
2023-12-26T00:43:52.565Z,10.40
2023-12-26T00:46:25.694Z,10.40
2023-12-26T00:51:28.487Z,10.30
2023-12-26T00:54:12.296Z,10.40
2023-12-26T01:02:11.517Z,10.30
2023-12-26T01:35:39.005Z,10.30
2023-12-26T02:48:39.737Z,9.90
2023-12-26T02:51:09.970Z,9.90
2023-12-26T02:56:34.899Z,9.80
2023-12-26T03:08:05.585Z,9.80
2023-12-26T03:10:48.857Z,9.70
2023-12-26T03:13:16.461Z,9.70
2023-12-26T03:21:20.178Z,9.60
2023-12-26T03:23:49.120Z,9.60
2023-12-26T08:05:33.881Z,7.40
2023-12-26T08:49:29.664Z,7.50
2023-12-26T08:52:06.357Z,7.60
2023-12-26T08:54:37.369Z,7.60
2023-12-26T08:57:22.078Z,7.60
2023-12-26T08:59:57.757Z,7.60
2023-12-26T09:02:40.431Z,7.60
2023-12-26T09:05:17.857Z,7.60
2023-12-26T09:08:00.860Z,7.50
2023-12-26T09:10:36.444Z,7.50
2023-12-26T09:13:03.403Z,7.50
2023-12-26T09:15:39.465Z,7.50
2023-12-26T09:18:19.703Z,7.50
2023-12-26T09:21:01.796Z,7.50
2023-12-26T09:26:20.781Z,7.60
2023-12-26T09:29:41.305Z,7.70
2023-12-26T09:32:05.249Z,7.70
2023-12-26T09:40:49.114Z,7.80
2023-12-26T09:43:26.164Z,7.80
2023-12-26T09:46:12.882Z,7.90
2023-12-26T10:03:49.114Z,8.20
2023-12-26T10:06:37.890Z,8.20
2023-12-26T10:12:07.676Z,8.30
2023-12-26T12:52:04.911Z,8.90
2023-12-26T12:55:29.995Z,8.90
2023-12-26T12:58:40.838Z,8.90
2023-12-26T13:01:46.914Z,8.90
2023-12-26T13:05:02.459Z,8.90
2023-12-26T13:18:22.152Z,8.90
2023-12-26T13:21:26.809Z,8.90
2023-12-26T13:34:45.647Z,8.90
2023-12-26T13:37:50.176Z,8.90
2023-12-26T13:40:57.514Z,8.90
2023-12-26T13:44:17.002Z,8.90
2023-12-26T13:50:54.135Z,8.90
2023-12-26T13:57:31.441Z,8.80
2023-12-26T14:10:13.847Z,8.70
2023-12-26T14:13:18.801Z,8.70
2023-12-26T14:16:23.971Z,8.60
2023-12-26T14:19:37.542Z,8.60
2023-12-26T14:22:12.899Z,8.60
2023-12-26T14:24:39.753Z,8.60
2023-12-26T14:27:18.491Z,8.60
2023-12-26T14:29:45.344Z,8.60
2023-12-26T14:32:49.881Z,8.60
2023-12-26T15:06:38.599Z,8.40
2023-12-26T15:12:20.679Z,8.40
2023-12-26T15:15:10.493Z,8.30
2023-12-26T15:18:33.403Z,8.30
2023-12-26T15:44:56.554Z,7.90
2023-12-26T15:47:24.121Z,7.90
2023-12-26T15:50:22.568Z,7.80
2023-12-26T16:19:56.090Z,7.50
2023-12-26T16:28:28.825Z,7.40
2023-12-26T16:33:58.138Z,7.40
2023-12-26T16:36:31.292Z,7.30
2023-12-26T16:47:00.649Z,7.20
2023-12-26T17:01:24.315Z,7.00
2023-12-26T17:03:57.622Z,6.90
2023-12-26T17:06:27.049Z,6.90
2023-12-26T17:09:22.097Z,6.80
2023-12-26T17:11:49.706Z,6.80
2023-12-26T17:14:30.258Z,6.80
2023-12-26T17:17:09.437Z,6.70
2023-12-26T17:19:41.247Z,6.70
2023-12-26T18:26:22.869Z,5.70
2023-12-26T18:28:57.200Z,5.70
2023-12-26T18:31:24.218Z,5.60
2023-12-26T18:34:34.513Z,5.60
2023-12-26T18:37:06.266Z,5.50
2023-12-26T18:42:59.404Z,5.40
2023-12-26T18:46:04.556Z,5.40
2023-12-26T18:48:33.999Z,5.40
2023-12-26T18:51:09.619Z,5.40
2023-12-26T18:53:42.657Z,5.40
2023-12-26T18:56:15.695Z,5.30
2023-12-26T18:58:42.792Z,5.30
2023-12-26T19:01:10.127Z,5.30
2023-12-26T19:06:22.752Z,5.20
2023-12-26T19:08:58.703Z,5.20
2023-12-26T19:11:31.464Z,5.20
2023-12-26T19:14:00.884Z,5.10
2023-12-26T19:16:27.761Z,5.10
2023-12-26T19:18:57.948Z,5.10
2023-12-26T19:21:24.854Z,5.00
2023-12-26T19:23:57.067Z,5.00
2023-12-26T19:26:36.266Z,5.00
2023-12-26T19:31:45.966Z,4.90
2023-12-26T19:34:15.779Z,4.90
2023-12-26T19:36:42.676Z,4.90
2023-12-26T19:39:29.764Z,4.80
2023-12-26T19:41:56.629Z,4.80
2023-12-26T19:44:23.789Z,4.80
2023-12-26T19:46:50.650Z,4.70
2023-12-26T19:49:17.645Z,4.70
2023-12-26T19:51:44.929Z,4.60
2023-12-26T19:54:11.759Z,4.60
2023-12-26T19:56:42.855Z,4.50
2023-12-26T19:59:09.685Z,4.50
2023-12-26T20:01:44.021Z,4.50
2023-12-26T20:04:16.693Z,4.40
2023-12-26T20:06:52.444Z,4.30
2023-12-26T20:09:28.315Z,4.30
2023-12-26T20:11:55.491Z,4.40
2023-12-26T20:14:25.586Z,4.40
2023-12-26T20:17:03.599Z,4.30
2023-12-26T20:19:33.652Z,4.30
2023-12-26T20:22:00.629Z,4.30
2023-12-26T20:24:27.521Z,4.20
2023-12-26T20:27:05.100Z,4.20
2023-12-26T20:29:32.136Z,4.20
2023-12-26T20:32:01.770Z,4.20
2023-12-26T20:40:41.550Z,4.10
2023-12-26T20:43:44.180Z,4.00
2023-12-26T20:46:18.167Z,4.00
2023-12-26T20:54:47.822Z,3.80
2023-12-26T20:57:17.121Z,3.90
2023-12-26T20:59:58.486Z,3.90
2023-12-26T21:02:32.601Z,3.90
2023-12-26T21:04:59.457Z,3.90
2023-12-26T21:07:32.150Z,3.90
2023-12-26T21:09:58.941Z,3.90
2023-12-26T21:12:25.946Z,3.90
2023-12-26T21:14:52.777Z,3.80
2023-12-26T21:17:25.073Z,3.80
2023-12-26T21:19:51.997Z,3.80
2023-12-26T21:22:26.648Z,3.80
2023-12-26T21:25:12.098Z,3.70
2023-12-26T21:27:58.035Z,3.70
2023-12-26T21:30:37.969Z,3.70
2023-12-26T21:33:14.184Z,3.60
2023-12-26T21:35:43.818Z,3.60
2023-12-26T21:38:10.694Z,3.60
2023-12-26T21:40:44.603Z,3.60
2023-12-26T21:43:11.462Z,3.60
2023-12-26T21:45:47.243Z,3.50
2023-12-26T21:48:29.324Z,3.50
2023-12-26T21:51:02.348Z,3.40
2023-12-26T21:53:47.338Z,3.40
2023-12-26T21:56:24.876Z,3.40
2023-12-26T21:58:51.646Z,3.40
2023-12-26T22:01:25.654Z,3.40
2023-12-26T22:04:04.262Z,3.40
2023-12-26T22:06:56.519Z,3.40
2023-12-26T22:09:30.667Z,3.50
2023-12-26T22:11:57.560Z,3.50
2023-12-26T22:14:39.583Z,3.50
2023-12-26T22:17:21.998Z,3.40
2023-12-26T22:19:49.033Z,3.40
2023-12-26T22:22:26.838Z,3.30
2023-12-26T22:25:05.279Z,3.30
2023-12-26T22:27:44.330Z,3.40
2023-12-26T22:30:11.415Z,3.30
2023-12-26T22:32:44.288Z,3.20
2023-12-26T22:35:24.435Z,3.20
2023-12-26T22:38:06.006Z,3.10
2023-12-26T22:40:56.754Z,3.10
2023-12-26T22:43:40.022Z,3.10
2023-12-26T22:46:28.114Z,3.00
2023-12-26T22:49:01.049Z,3.00
2023-12-26T22:51:40.245Z,3.10
2023-12-26T22:54:16.702Z,3.10
2023-12-26T22:56:58.581Z,3.20
2023-12-26T22:59:25.477Z,3.20
2023-12-26T23:02:06.020Z,3.20
2023-12-26T23:04:45.970Z,3.20
2023-12-26T23:07:12.819Z,3.20
2023-12-26T23:09:54.831Z,3.20
2023-12-26T23:12:32.357Z,3.20
2023-12-26T23:15:05.780Z,3.20
2023-12-26T23:20:29.521Z,3.30
2023-12-26T23:23:05.423Z,3.30
2023-12-26T23:25:44.323Z,3.40
2023-12-26T23:28:14.642Z,3.60
2023-12-26T23:31:01.823Z,3.80
2023-12-26T23:33:41.482Z,3.90
2023-12-26T23:36:53.652Z,3.90
2023-12-26T23:39:21.452Z,3.90
2023-12-26T23:44:35.163Z,3.80
2023-12-26T23:47:02.438Z,3.80
2023-12-26T23:49:29.418Z,3.90
2023-12-26T23:51:59.531Z,3.80
2023-12-26T23:54:26.497Z,3.80
2023-12-26T23:56:53.364Z,3.80
2023-12-26T23:59:32.665Z,3.70
